Terminal Aerodrome Forecast
Issued by NWS Twin Cities, MN

Home | Current Version | Previous Version | Graphics & Text | Print | Product List | Glossary On
Versions: 1 2 3 4 5 6 7 8 9 10 11 12 13 14 15 16 17 18 19 20 21
834
FTUS43 KMPX 140907 AAA
TAFSTC
TAF AMD
KSTC 140907Z 1409/1506 34005KT P6SM SCT015 OVC025
     FM141200 31007KT P6SM OVC012
     FM142000 31012G19KT P6SM OVC020=

USA.gov is the U.S. government's official web portal to all federal, state and local government web resources and services.